Time;durP1;ratioP1;P1;durP2;ratioP2;P2;SDS_P1;SDS_P2;PMS_P1;PMS_P2;Temp;Humidity;BMP_temperature;BMP_pressure;BME280_temperature;BME280_humidity;BME280_pressure;Samples;Min_cycle;Max_cycle;Signal;HPM_P1;HPM_P2
2023/03/05 00:01:50;;;;;;;62.05;33.58;;;;;;;4.72;100.00;99707.84;5031451;28;20067;-30
2023/03/05 00:04:16;;;;;;;64.60;37.42;;;;;;;4.65;100.00;99704.31;5031568;28;20105;-33
2023/03/05 00:06:41;;;;;;;73.30;39.90;;;;;;;4.55;100.00;99695.91;5031608;28;20033;-32
2023/03/05 00:09:07;;;;;;;81.47;40.75;;;;;;;4.66;100.00;99692.75;5031623;28;20394;-32
2023/03/05 00:11:33;;;;;;;71.55;37.13;;;;;;;4.73;100.00;99696.25;5031130;28;20770;-33
2023/03/05 00:13:59;;;;;;;65.38;34.83;;;;;;;5.00;100.00;99701.78;5031348;28;20030;-29
2023/03/05 00:16:28;;;;;;;60.70;33.60;;;;;;;4.75;100.00;99681.03;5031388;28;20045;-39
2023/03/05 00:18:54;;;;;;;;;;;;;;;5.13;100.00;99699.25;5031784;28;20033;-33
2023/03/05 00:21:31;;;;;;;71.43;35.75;;;;;;;5.22;100.00;99695.44;5031025;28;20444;-33
2023/03/05 00:24:00;;;;;;;76.30;38.00;;;;;;;4.93;100.00;99685.88;5031231;28;20095;-33
2023/03/05 00:26:26;;;;;;;95.35;44.28;;;;;;;5.00;100.00;99673.50;5030959;28;20347;-35
2023/03/05 00:28:53;;;;;;;66.57;34.15;;;;;;;5.03;100.00;99682.91;5031169;28;20033;-32
2023/03/05 00:31:21;;;;;;;67.78;33.92;;;;;;;4.94;100.00;99681.41;5030823;28;20175;-30
2023/03/05 00:33:52;;;;;;;62.92;34.25;;;;;;;4.80;100.00;99673.38;5031180;28;20030;-32
2023/03/05 00:36:18;;;;;;;84.45;38.72;;;;;;;4.58;100.00;99669.94;5030216;28;20037;-32
2023/03/05 00:38:43;;;;;;;81.13;39.83;;;;;;;4.37;100.00;99673.41;5030837;28;20037;-30
2023/03/05 00:41:09;;;;;;;80.43;41.80;;;;;;;4.52;100.00;99659.31;5031238;28;20091;-35
2023/03/05 00:43:34;;;;;;;99.32;47.65;;;;;;;4.51;100.00;99657.66;5028909;28;20115;-30
2023/03/05 00:46:00;;;;;;;92.82;44.17;;;;;;;4.54;100.00;99684.53;5030648;28;20030;-32
2023/03/05 00:48:25;;;;;;;54.10;29.98;;;;;;;4.23;100.00;99666.34;5030835;28;20525;-36
2023/03/05 00:50:51;;;;;;;44.78;24.02;;;;;;;4.15;100.00;99669.09;5030787;28;20029;-32
2023/03/05 00:53:17;;;;;;;46.22;22.23;;;;;;;3.73;100.00;99654.81;5030277;28;20681;-30
2023/03/05 00:55:42;;;;;;;37.85;21.95;;;;;;;3.58;100.00;99666.19;5031301;28;20029;-32
2023/03/05 00:58:08;;;;;;;40.75;22.45;;;;;;;3.48;100.00;99655.13;5039726;28;20040;-31
2023/03/05 01:00:33;;;;;;;39.63;22.60;;;;;;;3.44;100.00;99645.94;5037396;28;20029;-32
2023/03/05 01:02:59;;;;;;;39.70;21.45;;;;;;;3.32;100.00;99655.28;5038353;28;20112;-34
2023/03/05 01:05:24;;;;;;;51.97;23.52;;;;;;;3.57;100.00;99640.00;5039824;28;20029;-33
2023/03/05 01:07:54;;;;;;;114.30;28.45;;;;;;;3.66;100.00;99640.72;5038364;28;20029;-33
2023/03/05 01:10:20;;;;;;;147.73;28.63;;;;;;;3.69;100.00;99670.19;5038108;28;20036;-32
2023/03/05 01:12:46;;;;;;;127.20;29.25;;;;;;;3.81;100.00;99665.25;5039631;28;20409;-33
2023/03/05 01:15:11;;;;;;;107.00;25.50;;;;;;;3.64;100.00;99667.28;5037333;28;20036;-33
2023/03/05 01:17:36;;;;;;;70.30;25.77;;;;;;;3.44;100.00;99648.56;5038185;28;20025;-34
2023/03/05 01:20:03;;;;;;;73.03;24.27;;;;;;;3.46;100.00;99672.94;5038493;28;20013;-32
2023/03/05 01:22:28;;;;;;;78.85;24.02;;;;;;;3.02;100.00;99673.69;5037823;28;20037;-32
2023/03/05 01:24:56;;;;;;;77.00;21.92;;;;;;;2.41;100.00;99671.06;5040066;28;20032;-34
2023/03/05 01:27:22;;;;;;;53.40;22.17;;;;;;;2.06;100.00;99677.72;5036855;28;20025;-33
2023/03/05 01:29:49;;;;;;;105.80;21.75;;;;;;;1.75;100.00;99670.66;5039219;28;20420;-34
2023/03/05 01:32:18;;;;;;;92.20;28.65;;;;;;;2.15;100.00;99661.72;5039069;28;20034;-32
2023/03/05 01:34:43;;;;;;;70.95;24.42;;;;;;;2.41;100.00;99640.34;5037367;28;20028;-32
2023/03/05 01:37:09;;;;;;;42.97;20.48;;;;;;;2.66;100.00;99647.22;5038815;28;20025;-32
2023/03/05 01:39:35;;;;;;;41.60;23.33;;;;;;;3.11;100.00;99658.66;5038822;28;20032;-33
2023/03/05 01:42:01;;;;;;;37.10;21.55;;;;;;;2.96;100.00;99642.81;5036645;28;20497;-38
2023/03/05 01:44:28;;;;;;;42.75;21.33;;;;;;;3.08;100.00;99656.38;5039135;28;20091;-32
2023/03/05 01:46:54;;;;;;;39.78;21.05;;;;;;;3.01;100.00;99657.09;5038620;28;20026;-36
2023/03/05 01:49:24;;;;;;;67.00;25.38;;;;;;;3.19;100.00;99648.03;5036691;28;20025;-32
2023/03/05 01:51:59;;;;;;;53.72;24.35;;;;;;;3.31;100.00;99630.78;5038510;28;20481;-32
2023/03/05 01:54:38;;;;;;;56.22;25.85;;;;;;;3.26;100.00;99648.94;5035903;28;20409;-32
2023/03/05 01:57:09;;;;;;;84.70;27.30;;;;;;;3.13;100.00;99648.75;5037843;28;20505;-34
2023/03/05 01:59:41;;;;;;;66.60;28.55;;;;;;;3.15;100.00;99652.03;5038043;28;20033;-36
2023/03/05 02:02:08;;;;;;;64.50;30.38;;;;;;;3.24;100.00;99634.31;5037418;28;20116;-34
2023/03/05 02:04:40;;;;;;;76.95;30.42;;;;;;;2.86;100.00;99636.97;5035453;28;20482;-35
2023/03/05 02:07:06;;;;;;;79.05;31.90;;;;;;;2.92;100.00;99659.97;5040296;28;20029;-31
2023/03/05 02:09:32;;;;;;;64.65;30.70;;;;;;;3.14;100.00;99651.19;5038406;28;20056;-35
2023/03/05 02:11:57;;;;;;;76.93;31.30;;;;;;;3.15;100.00;99637.03;5036836;28;20060;-33
2023/03/05 02:14:24;;;;;;;91.05;33.97;;;;;;;3.53;100.00;99644.81;5038852;28;20021;-32
2023/03/05 02:16:50;;;;;;;93.95;32.70;;;;;;;3.54;100.00;99657.03;5037846;28;20684;-35
2023/03/05 02:19:16;;;;;;;97.53;32.10;;;;;;;3.29;100.00;99656.50;5035478;28;20063;-33
2023/03/05 02:21:45;;;;;;;83.50;29.10;;;;;;;3.07;100.00;99623.94;5037186;28;20029;-33
2023/03/05 02:24:15;;;;;;;85.65;29.50;;;;;;;3.50;100.00;99661.03;5036630;28;20099;-32
2023/03/05 02:26:43;;;;;;;111.53;30.65;;;;;;;3.65;100.00;99647.00;5037989;28;20028;-34
2023/03/05 02:29:09;;;;;;;;;;;;;;;3.65;100.00;99660.19;5037115;28;20052;-37
2023/03/05 02:31:36;;;;;;;66.40;25.05;;;;;;;3.41;100.00;99646.28;5037707;28;20022;-32
2023/03/05 02:34:04;;;;;;;95.50;25.00;;;;;;;3.49;100.00;99626.91;5037005;28;20521;-30
2023/03/05 02:36:30;;;;;;;123.47;27.02;;;;;;;3.53;100.00;99644.81;5036919;28;20041;-33
2023/03/05 02:38:56;;;;;;;74.75;25.02;;;;;;;3.14;100.00;99635.38;5036676;28;20029;-32
2023/03/05 02:41:23;;;;;;;85.13;23.98;;;;;;;3.18;100.00;99647.19;5036815;28;20025;-36
2023/03/05 02:43:48;;;;;;;65.20;23.13;;;;;;;3.07;100.00;99658.19;5035963;28;20132;-35
2023/03/05 02:46:16;;;;;;;90.63;22.48;;;;;;;2.95;100.00;99641.19;5035605;28;20127;-33
2023/03/05 02:48:42;;;;;;;68.22;21.08;;;;;;;2.82;100.00;99631.28;5038264;28;20596;-34
2023/03/05 02:51:08;;;;;;;63.25;21.17;;;;;;;2.88;100.00;99629.72;5037537;28;20033;-36
2023/03/05 02:53:34;;;;;;;102.68;24.10;;;;;;;2.93;100.00;99637.91;5035411;28;20116;-33
2023/03/05 02:56:01;;;;;;;49.92;21.23;;;;;;;2.89;100.00;99641.91;5038165;28;20085;-33
2023/03/05 02:58:26;;;;;;;56.00;21.05;;;;;;;3.00;100.00;99639.66;5036334;28;20025;-32
2023/03/05 03:00:52;;;;;;;54.80;20.95;;;;;;;2.70;100.00;99644.06;5040331;28;20104;-32
2023/03/05 03:03:17;;;;;;;54.35;20.23;;;;;;;2.58;100.00;99648.91;5040750;28;20090;-33
2023/03/05 03:05:42;;;;;;;68.13;19.52;;;;;;;2.45;100.00;99642.59;5042328;28;20037;-31
2023/03/05 03:08:09;;;;;;;74.75;21.55;;;;;;;2.42;100.00;99652.47;5040463;28;20116;-32
2023/03/05 03:10:35;;;;;;;72.40;20.90;;;;;;;2.58;100.00;99651.53;5041812;28;20029;-31
2023/03/05 03:13:00;;;;;;;66.55;20.88;;;;;;;2.44;100.00;99640.97;5041747;28;20413;-35
2023/03/05 03:15:26;;;;;;;63.75;22.33;;;;;;;2.40;100.00;99628.16;5039800;28;20395;-37
2023/03/05 03:17:51;;;;;;;81.10;23.20;;;;;;;2.34;100.00;99636.75;5045077;28;20068;-31
2023/03/05 03:20:17;;;;;;;80.15;23.45;;;;;;;2.28;100.00;99619.03;5052177;28;20417;-31
2023/03/05 03:22:43;;;;;;;60.83;21.00;;;;;;;2.52;100.00;99628.56;5051993;28;20111;-31
2023/03/05 03:25:13;;;;;;;69.72;21.88;;;;;;;2.55;100.00;99625.56;5046337;28;20045;-36
2023/03/05 03:27:39;;;;;;;52.25;21.40;;;;;;;2.58;100.00;99645.47;5030301;28;20517;-34
2023/03/05 03:30:07;;;;;;;51.63;20.48;;;;;;;2.47;100.00;99637.97;5031404;28;20580;-32
2023/03/05 03:32:33;;;;;;;41.72;20.33;;;;;;;2.08;100.00;99638.91;5029709;28;20180;-35
2023/03/05 03:35:02;;;;;;;72.00;21.30;;;;;;;2.14;100.00;99627.69;5030772;28;20132;-31
2023/03/05 03:37:28;;;;;;;49.00;20.35;;;;;;;2.29;100.00;99628.59;5029912;28;20025;-33
2023/03/05 03:39:54;;;;;;;41.75;18.88;;;;;;;2.00;100.00;99624.84;5031579;28;20604;-35
2023/03/05 03:42:20;;;;;;;41.85;18.45;;;;;;;1.52;100.00;99624.09;5030907;28;20140;-33
2023/03/05 03:44:46;;;;;;;47.38;19.10;;;;;;;1.50;100.00;99627.88;5031455;28;20037;-31
2023/03/05 03:47:11;;;;;;;69.93;26.98;;;;;;;1.72;100.00;99632.38;5029952;28;20512;-31
2023/03/05 03:49:37;;;;;;;51.63;19.45;;;;;;;1.69;100.00;99613.50;5031322;28;20033;-35
2023/03/05 03:52:02;;;;;;;45.10;21.45;;;;;;;1.68;100.00;99623.19;5031343;28;20033;-41
2023/03/05 03:54:31;;;;;;;50.53;19.35;;;;;;;1.43;100.00;99608.53;5029550;28;20481;-32
2023/03/05 03:56:56;;;;;;;47.03;19.23;;;;;;;1.76;100.00;99632.88;5031067;28;20029;-31
2023/03/05 03:59:22;;;;;;;59.67;20.15;;;;;;;1.66;100.00;99624.38;5030785;28;20040;-33
2023/03/05 04:01:47;;;;;;;51.58;22.35;;;;;;;1.72;100.00;99623.69;5030764;28;20028;-33
2023/03/05 04:04:14;;;;;;;34.90;18.48;;;;;;;1.35;100.00;99622.53;5030702;28;20033;-39
2023/03/05 04:06:45;;;;;;;79.82;34.72;;;;;;;1.67;100.00;99624.19;5029875;28;20064;-32
2023/03/05 04:09:10;;;;;;;105.15;46.55;;;;;;;1.71;100.00;99624.66;5030839;28;20490;-33
2023/03/05 04:11:36;;;;;;;50.03;25.67;;;;;;;1.95;100.00;99624.53;5029372;28;20132;-33
2023/03/05 04:14:03;;;;;;;56.75;23.33;;;;;;;2.03;100.00;99614.97;5029190;28;20033;-34
2023/03/05 04:16:28;;;;;;;52.83;22.10;;;;;;;2.38;100.00;99629.34;5030949;28;20033;-33
2023/03/05 04:18:54;;;;;;;44.97;21.50;;;;;;;2.25;100.00;99624.66;5030523;28;20025;-32
2023/03/05 04:21:19;;;;;;;51.42;22.77;;;;;;;2.15;100.00;99595.16;5030215;28;20029;-33
2023/03/05 04:23:45;;;;;;;51.10;23.75;;;;;;;2.34;100.00;99634.13;5030782;28;20456;-33
2023/03/05 04:26:10;;;;;;;44.67;21.98;;;;;;;2.40;100.00;99627.34;5036104;28;20032;-32
2023/03/05 04:28:43;;;;;;;41.30;23.10;;;;;;;2.65;100.00;99641.13;5050765;28;20037;-32
2023/03/05 04:31:08;;;;;;;45.70;23.90;;;;;;;2.60;100.00;99623.22;5050408;28;20025;-34
2023/03/05 04:33:34;;;;;;;37.75;21.23;;;;;;;2.42;100.00;99622.72;5050208;28;20025;-33
2023/03/05 04:35:59;;;;;;;46.25;21.15;;;;;;;2.73;100.00;99627.88;5048835;28;20504;-31
2023/03/05 04:38:25;;;;;;;57.38;24.50;;;;;;;2.45;100.00;99625.00;5050069;28;20113;-37
2023/03/05 04:40:51;;;;;;;57.70;25.10;;;;;;;2.49;100.00;99628.09;5048748;28;20457;-32
2023/03/05 04:43:19;;;;;;;55.33;24.52;;;;;;;2.15;100.00;99613.56;5047856;28;20202;-38
2023/03/05 04:45:44;;;;;;;51.75;24.13;;;;;;;2.18;100.00;99607.94;5050740;28;20036;-31
2023/03/05 04:48:10;;;;;;;58.00;23.90;;;;;;;2.26;100.00;99609.69;5048500;28;20044;-33
2023/03/05 04:50:36;;;;;;;56.10;23.30;;;;;;;2.11;100.00;99607.00;5050042;28;20060;-35
2023/03/05 04:53:03;;;;;;;62.42;25.17;;;;;;;2.14;100.00;99590.88;5049571;28;20465;-36
2023/03/05 04:55:31;;;;;;;47.25;22.05;;;;;;;2.09;100.00;99630.03;5049561;28;20028;-34
2023/03/05 04:57:57;;;;;;;53.55;25.00;;;;;;;1.95;100.00;99618.44;5049397;28;20071;-33
2023/03/05 05:00:23;;;;;;;60.83;28.70;;;;;;;2.01;100.00;99634.34;5049827;28;20017;-33
2023/03/05 05:02:49;;;;;;;71.32;28.00;;;;;;;1.92;100.00;99635.41;5049306;28;20060;-34
2023/03/05 05:05:18;;;;;;;68.15;32.88;;;;;;;2.20;100.00;99627.00;5049025;28;20025;-34
2023/03/05 05:07:44;;;;;;;75.00;31.73;;;;;;;2.41;100.00;99626.34;5049334;28;20111;-31
2023/03/05 05:10:10;;;;;;;69.97;28.23;;;;;;;2.56;100.00;99636.94;5048972;28;20170;-35
2023/03/05 05:12:36;;;;;;;46.45;23.17;;;;;;;2.60;100.00;99646.13;5049224;28;20126;-30
2023/03/05 05:15:03;;;;;;;67.80;21.10;;;;;;;2.64;100.00;99650.03;5048464;28;20099;-31
2023/03/05 05:17:31;;;;;;;73.93;20.65;;;;;;;2.52;100.00;99647.00;5048747;28;20492;-35
2023/03/05 05:19:58;;;;;;;66.72;21.95;;;;;;;2.30;100.00;99647.81;5049098;28;20047;-38
2023/03/05 05:22:23;;;;;;;87.47;24.48;;;;;;;2.50;100.00;99653.44;5048617;28;20119;-33
2023/03/05 05:24:49;;;;;;;49.38;20.52;;;;;;;2.42;100.00;99657.75;5048499;28;20104;-34
2023/03/05 05:27:14;;;;;;;81.18;25.10;;;;;;;2.71;100.00;99661.47;5039062;28;20061;-33
2023/03/05 05:29:40;;;;;;;70.47;25.67;;;;;;;2.67;100.00;99654.91;5027645;28;20485;-37
2023/03/05 05:32:06;;;;;;;62.05;24.13;;;;;;;2.58;100.00;99662.06;5029318;28;20644;-33
2023/03/05 05:34:31;;;;;;;65.15;26.25;;;;;;;2.69;100.00;99666.09;5028947;28;20028;-34
2023/03/05 05:36:56;;;;;;;46.80;22.30;;;;;;;2.65;100.00;99646.38;5029289;28;20025;-33
2023/03/05 05:39:22;;;;;;;52.47;20.15;;;;;;;2.58;100.00;99635.75;5028883;28;20092;-32
2023/03/05 05:41:52;;;;;;;45.63;18.42;;;;;;;2.98;100.00;99656.63;5028771;28;20124;-33
2023/03/05 05:44:18;;;;;;;46.40;19.67;;;;;;;3.02;100.00;99663.16;5027571;28;20040;-33
2023/03/05 05:46:43;;;;;;;47.30;20.70;;;;;;;3.01;100.00;99646.53;5028537;28;20034;-32
2023/03/05 05:49:09;;;;;;;40.15;21.05;;;;;;;2.79;100.00;99674.56;5028812;28;20025;-32
2023/03/05 05:51:34;;;;;;;68.65;26.77;;;;;;;2.82;100.00;99652.34;5028392;28;20082;-33
2023/03/05 05:54:00;;;;;;;52.67;21.65;;;;;;;3.21;100.00;99654.75;5041001;28;20036;-32
2023/03/05 05:56:25;;;;;;;45.08;20.88;;;;;;;3.21;100.00;99651.31;5049283;28;20404;-33
2023/03/05 05:58:51;;;;;;;40.08;18.05;;;;;;;3.13;100.00;99675.09;5048345;28;20401;-33
2023/03/05 06:01:28;;;;;;;45.42;23.08;;;;;;;2.91;100.00;99642.53;5048748;28;20663;-30
2023/03/05 06:03:54;;;;;;;35.65;20.58;;;;;;;3.12;100.00;99669.00;5048836;28;20130;-34
2023/03/05 06:06:23;;;;;;;47.85;16.45;;;;;;;3.20;100.00;99666.28;5047605;28;20091;-31
2023/03/05 06:08:48;;;;;;;;;;;;;;;3.36;100.00;99680.28;5048831;28;20028;-35
2023/03/05 06:11:14;;;;;;;35.30;18.98;;;;;;;3.14;100.00;99669.63;5048367;28;19909;-34
2023/03/05 06:13:40;;;;;;;38.85;23.30;;;;;;;3.29;100.00;99674.94;5048322;28;20032;-36
2023/03/05 06:16:10;;;;;;;28.52;17.90;;;;;;;3.42;100.00;99682.19;5048677;28;20029;-34
2023/03/05 06:18:36;;;;;;;27.05;17.00;;;;;;;3.28;100.00;99678.56;5047958;28;20033;-33
2023/03/05 06:21:05;;;;;;;27.55;16.75;;;;;;;3.31;100.00;99666.81;5030151;28;20029;-35
2023/03/05 06:23:30;;;;;;;24.02;15.50;;;;;;;3.54;100.00;99672.84;5048014;28;20090;-31
2023/03/05 06:26:01;;;;;;;24.75;16.33;;;;;;;3.76;100.00;99680.81;5048013;28;20409;-32
2023/03/05 06:28:28;;;;;;;28.52;19.08;;;;;;;3.87;100.00;99674.25;5047592;28;20061;-32
2023/03/05 06:31:08;;;;;;;33.67;22.98;;;;;;;3.98;100.00;99674.59;5047757;28;20029;-36
2023/03/05 06:33:34;;;;;;;37.70;24.27;;;;;;;4.20;100.00;99669.34;5047999;28;20035;-36
2023/03/05 06:36:03;;;;;;;38.30;24.73;;;;;;;4.20;100.00;99653.50;5052142;28;20075;-31
2023/03/05 06:38:29;;;;;;;36.53;22.02;;;;;;;4.46;100.00;99683.84;5050872;28;20053;-34
2023/03/05 06:40:54;;;;;;;43.50;26.60;;;;;;;4.78;100.00;99680.69;5051769;28;20102;-36
2023/03/05 06:43:19;;;;;;;36.95;22.23;;;;;;;4.87;100.00;99683.19;5051862;28;20132;-35
2023/03/05 06:45:45;;;;;;;30.45;20.10;;;;;;;4.96;100.00;99676.72;5051659;28;20033;-39
2023/03/05 06:48:11;;;;;;;30.95;20.35;;;;;;;5.00;100.00;99683.28;5052089;28;20118;-36
2023/03/05 06:50:37;;;;;;;31.80;20.17;;;;;;;4.87;100.00;99683.19;5051070;28;20081;-33
2023/03/05 06:53:03;;;;;;;28.17;19.23;;;;;;;4.80;100.00;99672.53;5052057;28;20116;-34
2023/03/05 06:55:28;;;;;;;23.63;16.42;;;;;;;4.98;100.00;99677.38;5031171;28;20064;-31
2023/03/05 06:57:54;;;;;;;24.90;17.05;;;;;;;5.10;100.00;99675.00;5031185;28;20029;-34
2023/03/05 07:00:20;;;;;;;24.95;15.73;;;;;;;5.15;100.00;99665.50;5031996;28;20021;-36
2023/03/05 07:02:46;;;;;;;24.55;16.17;;;;;;;5.38;100.00;99675.81;5039282;28;20040;-33
2023/03/05 07:05:11;;;;;;;27.25;17.25;;;;;;;5.59;100.00;99677.53;5040883;28;20026;-34
2023/03/05 07:07:37;;;;;;;24.13;16.02;;;;;;;5.88;100.00;99667.69;5035076;28;20084;-32
2023/03/05 07:10:06;;;;;;;22.05;14.70;;;;;;;6.07;100.00;99654.75;5031817;28;20079;-35
2023/03/05 07:12:32;;;;;;;27.60;17.80;;;;;;;6.89;100.00;99655.50;5031784;28;20030;-32
2023/03/05 07:14:58;;;;;;;27.65;16.52;;;;;;;7.22;100.00;99671.34;5030694;28;20025;-32
2023/03/05 07:17:23;;;;;;;27.60;17.65;;;;;;;7.23;100.00;99673.81;5031220;28;20078;-35
2023/03/05 07:19:49;;;;;;;29.25;17.40;;;;;;;7.43;100.00;99663.13;5031532;28;20017;-32
2023/03/05 07:22:15;;;;;;;30.08;17.35;;;;;;;7.41;100.00;99667.03;5030501;28;20088;-33
2023/03/05 07:24:40;;;;;;;27.90;18.27;;;;;;;7.83;100.00;99652.41;5030154;28;20025;-33
2023/03/05 07:27:05;;;;;;;25.65;16.25;;;;;;;7.57;100.00;99673.72;5031415;28;20565;-35
2023/03/05 07:29:31;;;;;;;26.38;17.10;;;;;;;7.84;100.00;99674.44;5038524;28;20578;-35
2023/03/05 07:31:56;;;;;;;26.70;17.23;;;;;;;8.12;100.00;99660.03;5038864;28;20037;-37
2023/03/05 07:34:23;;;;;;;27.65;17.13;;;;;;;8.55;100.00;99659.38;5031340;28;20025;-32
2023/03/05 07:36:51;;;;;;;25.48;16.58;;;;;;;8.62;99.65;99644.19;5031522;28;20029;-34
2023/03/05 07:39:18;;;;;;;26.90;16.50;;;;;;;8.37;98.94;99647.59;5029721;28;20029;-32
2023/03/05 07:41:44;;;;;;;26.73;16.80;;;;;;;8.27;99.97;99639.28;5030697;28;20034;-33
2023/03/05 07:44:10;;;;;;;25.40;16.48;;;;;;;8.53;99.79;99622.38;5030953;28;20108;-31
2023/03/05 07:46:36;;;;;;;39.17;29.98;;;;;;;8.59;100.00;99634.81;5030491;28;20025;-32
2023/03/05 07:49:02;;;;;;;28.35;17.02;;;;;;;8.68;100.00;99630.03;5034892;28;20041;-33
2023/03/05 07:51:27;;;;;;;29.73;17.73;;;;;;;8.81;100.00;99643.22;5030591;28;20529;-33
2023/03/05 07:53:56;;;;;;;26.15;17.00;;;;;;;8.78;100.00;99641.00;5030760;28;20033;-31
2023/03/05 07:56:26;;;;;;;30.50;18.13;;;;;;;8.93;100.00;99642.50;5030810;28;20489;-32
2023/03/05 07:58:51;;;;;;;29.90;18.42;;;;;;;9.31;100.00;99631.69;5033145;28;20505;-34
2023/03/05 08:01:17;;;;;;;38.05;21.15;;;;;;;9.58;100.00;99610.94;5050455;28;20021;-32
2023/03/05 08:03:43;;;;;;;27.10;17.92;;;;;;;9.94;97.87;99625.22;5051029;28;20037;-32
2023/03/05 08:06:10;;;;;;;30.13;18.05;;;;;;;10.25;96.09;99616.16;5050857;28;20104;-35
2023/03/05 08:08:36;;;;;;;30.02;17.75;;;;;;;10.26;95.41;99611.66;5046815;28;20061;-32
2023/03/05 08:11:06;;;;;;;32.67;20.63;;;;;;;10.29;98.24;99627.19;5039292;28;20102;-35
2023/03/05 08:13:32;;;;;;;28.33;15.93;;;;;;;10.25;93.94;99610.03;5045094;28;20112;-34
2023/03/05 08:15:57;;;;;;;25.83;16.92;;;;;;;10.19;95.71;99624.25;5050491;28;20579;-34
2023/03/05 08:18:23;;;;;;;27.48;15.85;;;;;;;10.35;92.73;99620.97;5050549;28;20037;-32
2023/03/05 08:20:48;;;;;;;27.15;17.08;;;;;;;10.53;94.73;99622.75;5047328;28;20029;-33
2023/03/05 08:23:14;;;;;;;25.77;15.88;;;;;;;10.80;93.73;99622.31;5039671;28;20028;-34
2023/03/05 08:25:39;;;;;;;28.65;15.95;;;;;;;10.70;91.68;99606.88;5038840;28;20027;-34
2023/03/05 08:28:05;;;;;;;24.75;15.88;;;;;;;10.96;91.44;99626.97;5040449;28;20021;-32
2023/03/05 08:30:30;;;;;;;20.48;13.02;;;;;;;11.21;85.39;99624.06;5038727;28;20033;-38
2023/03/05 08:32:56;;;;;;;23.80;14.88;;;;;;;11.24;86.28;99628.94;5039250;28;20543;-32
2023/03/05 08:35:22;;;;;;;21.77;13.30;;;;;;;11.35;84.85;99602.47;5040451;28;20497;-33
2023/03/05 08:37:47;;;;;;;26.60;15.52;;;;;;;11.19;85.53;99620.00;5038673;28;20092;-32
2023/03/05 08:40:14;;;;;;;26.10;16.13;;;;;;;11.34;85.82;99611.50;5039450;28;20029;-32
2023/03/05 08:42:39;;;;;;;24.35;14.00;;;;;;;11.47;82.04;99603.25;5040099;28;20111;-32
2023/03/05 08:45:05;;;;;;;24.00;14.65;;;;;;;11.50;82.80;99610.78;5038071;28;20482;-37
2023/03/05 08:47:31;;;;;;;21.92;13.07;;;;;;;11.22;79.70;99591.00;5046804;28;20059;-32
2023/03/05 08:49:57;;;;;;;23.88;14.45;;;;;;;11.32;80.73;99601.09;5049622;28;20029;-35
2023/03/05 08:52:23;;;;;;;24.55;15.48;;;;;;;10.99;82.82;99621.19;5049779;28;20486;-33
2023/03/05 08:54:49;;;;;;;27.00;14.68;;;;;;;11.32;82.20;99601.09;5049988;28;20064;-31
2023/03/05 08:57:15;;;;;;;23.50;14.98;;;;;;;11.04;81.60;99599.13;5048368;28;20063;-36
2023/03/05 08:59:40;;;;;;;22.63;14.35;;;;;;;11.00;83.80;99596.13;5049908;28;20029;-32
2023/03/05 09:02:06;;;;;;;26.45;14.77;;;;;;;11.13;83.39;99600.38;5048422;28;20071;-33
2023/03/05 09:04:31;;;;;;;22.35;13.45;;;;;;;10.95;82.70;99614.69;5049706;28;20032;-33
2023/03/05 09:06:57;;;;;;;22.50;13.15;;;;;;;11.05;82.78;99614.09;5049669;28;20029;-32
2023/03/05 09:09:24;;;;;;;23.00;13.98;;;;;;;11.37;84.20;99608.38;5047968;28;20128;-36
2023/03/05 09:11:50;;;;;;;22.85;14.00;;;;;;;11.16;82.77;99599.13;5049418;28;20033;-32
2023/03/05 09:14:16;;;;;;;22.27;14.30;;;;;;;11.10;83.77;99611.53;5049009;28;20039;-33
2023/03/05 09:16:41;;;;;;;25.13;15.30;;;;;;;11.15;84.08;99598.31;5049611;28;20543;-46
2023/03/05 09:19:11;;;;;;;24.85;14.60;;;;;;;11.50;84.05;99605.44;5049052;28;20063;-32
2023/03/05 09:21:37;;;;;;;26.48;15.40;;;;;;;11.37;81.51;99603.03;5049004;28;20036;-31
2023/03/05 09:24:03;;;;;;;25.50;15.43;;;;;;;11.06;80.92;99600.53;5049152;28;20420;-34
2023/03/05 09:26:28;;;;;;;25.38;15.95;;;;;;;10.84;81.49;99602.97;5049183;28;20033;-34
2023/03/05 09:28:54;;;;;;;23.50;14.82;;;;;;;10.93;82.50;99586.59;5048947;28;20033;-31
2023/03/05 09:31:19;;;;;;;27.23;15.07;;;;;;;10.95;82.92;99581.84;5049589;28;20043;-32
2023/03/05 09:33:47;;;;;;;26.15;14.73;;;;;;;10.95;81.62;99579.19;5029004;28;20033;-29
2023/03/05 09:36:24;;;;;;;26.38;16.48;;;;;;;11.29;78.88;99592.72;5029274;28;20045;-31
2023/03/05 09:38:51;;;;;;;25.27;14.15;;;;;;;11.16;79.88;99594.59;5028798;28;20029;-30
2023/03/05 09:41:20;;;;;;;23.05;13.43;;;;;;;11.13;79.29;99584.38;5029028;28;20038;-30
2023/03/05 09:44:26;;;;;;;22.25;14.05;;;;;;;11.32;79.51;99593.06;5028846;28;20064;-30
2023/03/05 09:47:04;;;;;;;24.52;14.65;;;;;;;11.25;78.25;99569.16;5028290;28;20049;-31
2023/03/05 09:49:53;;;;;;;24.15;14.77;;;;;;;11.26;77.93;99562.78;5028394;28;20025;-30
2023/03/05 09:52:38;;;;;;;22.63;13.48;;;;;;;11.54;77.95;99573.72;5028693;28;20041;-30
2023/03/05 09:55:12;;;;;;;23.05;13.93;;;;;;;11.79;79.28;99560.88;5028766;28;20045;-31
2023/03/05 09:57:42;;;;;;;26.25;14.40;;;;;;;12.08;74.77;99584.94;5028324;28;20479;-31
2023/03/05 10:00:32;;;;;;;22.35;13.65;;;;;;;11.60;73.72;99583.47;5029191;28;20037;-32
2023/03/05 10:03:05;;;;;;;23.15;13.80;;;;;;;11.62;74.80;99571.50;5028923;28;20086;-32
2023/03/05 10:05:51;;;;;;;23.88;14.80;;;;;;;12.04;76.86;99573.91;5029052;28;20029;-31
2023/03/05 10:08:21;;;;;;;21.95;12.85;;;;;;;12.19;74.76;99543.16;5028616;28;20071;-31
2023/03/05 10:10:49;;;;;;;24.45;13.93;;;;;;;12.50;70.49;99557.00;5029521;28;20525;-30
2023/03/05 10:13:29;;;;;;;24.77;15.48;;;;;;;12.68;70.98;99551.41;5028933;28;20041;-31
2023/03/05 10:16:18;;;;;;;24.58;14.55;;;;;;;12.51;72.07;99545.28;5027641;28;20036;-30
2023/03/05 10:18:50;;;;;;;24.55;14.23;;;;;;;12.43;72.40;99531.25;5028433;28;20041;-30
2023/03/05 10:21:36;;;;;;;21.70;13.02;;;;;;;12.59;69.81;99537.63;5028831;28;20091;-30
2023/03/05 10:24:38;;;;;;;28.13;15.23;;;;;;;12.61;71.29;99535.53;5028881;28;20029;-31
2023/03/05 10:27:07;;;;;;;28.13;14.45;;;;;;;12.54;71.47;99518.81;5036988;28;20013;-30
2023/03/05 10:29:33;;;;;;;24.23;14.82;;;;;;;12.67;71.84;99517.69;5047627;28;20045;-30
2023/03/05 10:32:01;;;;;;;24.55;14.90;;;;;;;12.78;69.67;99505.25;5048964;28;20151;-30
2023/03/05 10:34:28;;;;;;;;;;;;;;;12.77;68.00;99503.63;5049124;28;20139;-31
2023/03/05 10:37:06;;;;;;;26.40;15.33;;;;;;;12.87;69.63;99498.41;5047933;28;19909;-32
2023/03/05 10:39:48;;;;;;;26.50;16.38;;;;;;;12.69;69.60;99472.78;5048275;28;20074;-30
2023/03/05 10:42:34;;;;;;;26.73;15.77;;;;;;;12.60;69.56;99480.38;5046790;28;20048;-31
2023/03/05 10:45:11;;;;;;;27.83;15.90;;;;;;;12.58;72.01;99465.66;5048207;28;20022;-30
2023/03/05 10:48:16;;;;;;;25.80;16.13;;;;;;;12.93;70.08;99484.03;5048105;28;20024;-32
2023/03/05 10:50:47;;;;;;;26.75;16.30;;;;;;;13.04;70.10;99458.22;5048427;28;20029;-31
2023/03/05 10:53:24;;;;;;;33.03;18.20;;;;;;;12.98;70.93;99477.97;5047278;28;20033;-32
2023/03/05 10:55:54;;;;;;;28.70;16.27;;;;;;;12.83;71.10;99439.25;5047978;28;20404;-31
2023/03/05 10:58:20;;;;;;;30.27;18.33;;;;;;;13.23;68.79;99462.16;5047297;28;20033;-30
2023/03/05 11:01:17;;;;;;;30.15;17.25;;;;;;;13.56;65.45;99448.88;5048050;28;20087;-32
2023/03/05 11:03:58;;;;;;;28.05;17.45;;;;;;;13.51;66.31;99456.88;5047447;28;20037;-32
2023/03/05 11:06:31;;;;;;;31.27;18.60;;;;;;;13.42;68.55;99441.28;5047443;28;20116;-33
2023/03/05 11:09:31;;;;;;;31.30;17.58;;;;;;;13.45;67.87;99439.94;5048274;28;20048;-31
2023/03/05 11:12:05;;;;;;;30.25;17.48;;;;;;;13.75;71.39;99419.84;5046721;28;20527;-30
2023/03/05 11:14:32;;;;;;;28.38;17.77;;;;;;;13.75;67.18;99420.66;5047709;28;20025;-30
2023/03/05 11:17:21;;;;;;;30.30;17.57;;;;;;;13.92;67.07;99441.16;5047291;28;20163;-31
2023/03/05 11:19:46;;;;;;;40.58;28.08;;;;;;;13.95;65.20;99420.00;5048074;28;20060;-30
2023/03/05 11:22:21;;;;;;;30.80;17.88;;;;;;;13.96;67.21;99404.75;5051465;28;20064;-32
2023/03/05 11:25:17;;;;;;;31.30;18.17;;;;;;;13.83;66.87;99430.09;5051955;28;20116;-32